Terminal Aerodrome Forecast
Issued by NWS

Home | Current Version | Previous Version | Text Only | Print | Product List | Glossary On
Versions: 1 2 3 4 5 6 7 8 9 10 11 12
727
FTUS45 KABQ 281739
TAFLVS
TAF
KLVS 281739Z 2818/2918 13011KT P6SM SCT120
      TEMPO 2818/2821 13012G22KT
     FM282100 18021G31KT P6SM SCT120
     FM290200 19010KT P6SM BKN100
     FM290500 04011KT P6SM VCSH SCT007 OVC070
     FM291000 04008KT P6SM BKN007
     FM291400 24012G22KT P6SM SCT010 BKN080=

USA.gov is the U.S. government's official web portal to all federal, state and local government web resources and services.